FABL/BFN METAR and TAF weather

Enter ICAO airport designator
Station Type Date Time Source
FABL METAR 2018/07/21 04:00 UTC NOAA

FABL 210400Z 00000KT CAVOK M02/M04 Q1031 NOSIG


Station Type Date Time Source
FABL Decoded METAR 2018/07/21 04:00 UTC NOAA

Bloemfontein, Bloemfontein Airport, South Africa (FABL) 29-06S 026-18E 1400M
Jul 21, 2018 - 12:00 AM EDT / 2018.07.21 0400 UTC
Wind: Calm:0
Visibility: greater than 7 mile(s):0
Temperature: 28 F (-2 C)
Dew Point: 24 F (-4 C)
Relative Humidity: 86%
Pressure (altimeter): 30.45 in. Hg (1031 hPa)
ob: FABL 210400Z 00000KT CAVOK M02/M04 Q1031 NOSIG
cycle: 4

Station Type Date Time Source
FABL TAF 2018/07/21 06:13 UTC NOAA

TAF FABL 210400Z 2106/2206 VRB03KT CAVOK TX19/2113Z TNM01/2204Z


Example: see airport list